Terminal Aerodrome Forecast
Issued by NWS Mt. Holly, NJ

Home | Current Version | Previous Version | Text Only | Print | Product List | Glossary On
Versions: 1 2 3 4 5 6 7 8 9 10 11 12 13 14 15 16 17 18 19 20 21 22 23 24 25
940
FTAK31 PANC 241130
TAFABE
TAF
PABE 241130Z 2412/2512 07006KT P6SM VCSH BKN080
     FM241700 08007KT P6SM -SHRA BKN040 OVC060
     FM250200 10010KT P6SM VCSH SCT040 BKN060=

USA.gov is the U.S. government's official web portal to all federal, state and local government web resources and services.